Date,TemperatureHighF,TemperatureAvgF,TemperatureLowF,DewpointHighF,DewpointAvgF,DewpointLowF,HumidityHigh,HumidityAvg,HumidityLow,PressureMaxIn,PressureMinIn,WindSpeedMaxMPH,WindSpeedAvgMPH,GustSpeedMaxMPH,PrecipitationSumIn
2013-1-1,45,42,39,38,33,28,85,71,64,29.68,29.59,13,5,13,0.28
2013-1-2,42,38,34,28,26,25,76,62,52,29.74,29.65,10,2,10,0.00
2013-1-3,49,43,33,28,25,24,78,52,38,29.85,29.80,8,3,8,0.00
2013-1-4,51,47,41,30,27,25,64,47,39,29.91,29.77,9,2,9,0.00
2013-1-5,52,46,40,39,36,34,91,68,51,29.77,29.62,13,2,13,0.00
2013-1-6,56,48,37,34,27,24,81,45,30,29.80,29.71,11,3,11,0.00
2013-1-7,56,48,32,32,28,23,67,48,37,29.74,29.53,13,3,13,0.00
2013-1-8,49,48,47,49,45,34,98,90,60,29.50,29.35,11,4,11,1.51
2013-1-9,56,53,49,56,53,49,98,98,96,29.50,29.35,20,6,20,1.34
2013-1-10,60,56,51,57,48,42,98,75,53,29.38,29.32,13,5,13,0.04
2013-1-11,70,61,48,62,50,43,91,70,44,29.35,29.23,13,7,13,0.00
2013-1-12,70,54,38,69,50,32,98,86,72,29.32,29.09,15,6,17,1.02
2013-1-13,43,38,34,23,20,17,63,51,41,29.62,29.53,17,7,17,0.00
2013-1-14,44,38,30,24,19,15,58,48,41,29.74,29.62,10,6,10,0.00
2013-1-15,37,35,31,28,26,20,89,69,54,29.62,29.56,15,6,15,0.08
2013-1-16,48,40,29,24,20,16,66,44,34,29.71,29.56,10,4,10,0.00
2013-1-17,59,52,37,32,29,23,61,42,34,29.85,29.74,13,4,13,0.00
2013-1-18,61,52,35,34,32,28,78,47,35,29.91,29.71,16,4,16,0.00
2013-1-19,65,56,42,43,41,38,88,60,43,29.68,29.56,15,5,15,0.00
2013-1-20,67,58,41,46,41,37,92,54,36,29.62,29.47,13,5,13,0.00
2013-1-21,57,52,42,33,29,21,49,41,38,29.71,29.62,13,4,13,0.00
2013-1-22,64,58,48,44,41,31,71,53,45,29.71,29.59,12,4,12,0.00
2013-1-23,72,68,60,53,51,49,75,55,45,29.68,29.53,15,6,15,0.00
2013-1-24,75,67,55,60,57,53,98,72,47,29.59,29.44,15,5,15,0.00
2013-1-25,54,52,50,46,41,37,84,66,60,29.62,29.53,13,4,13,0.00
2013-1-26,52,51,48,50,49,47,96,92,86,29.62,29.53,8,2,8,0.00
2013-1-27,74,68,58,63,58,55,98,74,54,29.50,29.32,23,8,23,0.00
2013-1-28,76,73,68,65,62,58,86,70,55,29.41,29.26,21,8,21,0.00
2013-1-29,77,69,57,65,60,42,85,73,42,29.15,28.88,28,9,28,0.16
2013-1-30,54,49,44,32,25,21,58,39,31,29.53,29.18,22,9,22,0.16
2013-1-31,67,54,35,30,25,19,57,34,22,29.62,29.53,16,4,16,0.00
2013-2-1,59,48,32,32,25,14,50,40,35,29.80,29.59,11,5,11,0.00
2013-2-2,66,62,47,44,36,28,78,41,27,29.65,29.62,12,4,12,0.00
2013-2-3,68,64,52,35,30,25,51,27,23,29.71,29.44,10,5,10,0.00
2013-2-4,71,65,56,54,50,37,79,59,48,29.32,29.21,16,6,16,0.00
2013-2-5,66,65,60,60,59,58,94,82,78,29.41,29.35,9,3,9,0.00
2013-2-6,73,70,63,58,55,52,82,61,48,29.41,29.26,12,6,12,0.00
2013-2-7,79,69,60,59,50,37,93,56,25,29.44,29.26,15,7,15,0.00
2013-2-8,63,57,45,34,30,26,64,37,26,29.65,29.53,12,4,12,0.00
2013-2-9,60,53,49,60,48,40,98,86,71,29.50,29.18,18,7,18,0.00
2013-2-10,68,62,54,62,40,24,98,54,23,29.32,29.12,19,6,19,0.71
2013-2-11,54,52,50,35,30,26,54,43,36,29.56,29.47,15,4,15,0.00
2013-2-12,51,49,48,47,46,45,94,90,82,29.35,29.26,8,3,8,0.16
2013-2-13,55,47,40,34,32,28,78,59,35,29.56,29.44,10,3,10,0.16
2013-2-14,67,56,38,39,34,28,85,48,26,29.50,29.41,8,2,8,0.00
2013-2-15,53,48,41,33,24,17,59,41,28,29.80,29.65,17,5,17,0.00
2013-2-16,55,51,34,27,24,21,65,35,30,29.83,29.59,9,2,9,0.00
2013-2-17,68,65,52,35,32,30,43,30,24,29.53,29.32,24,10,24,0.00
2013-2-18,78,67,56,55,41,30,75,42,24,29.44,29.18,25,11,25,0.00
2013-2-19,61,55,42,26,24,23,50,31,25,29.74,29.56,10,5,10,0.00
2013-2-20,47,45,42,41,36,32,83,71,59,29.59,29.32,16,7,16,0.04
2013-2-21,49,48,46,47,45,43,95,92,87,29.15,29.03,18,6,18,0.04
2013-2-24,69,68,64,39,36,34,34,31,28,29.21,29.12,17,8,17,0.00
2013-2-25,63,54,42,50,36,26,76,52,28,28.97,28.88,15,7,15,0.00
2013-2-26,58,52,41,30,29,28,60,42,35,29.29,29.18,17,6,17,0.00
2013-2-27,58,51,38,30,25,18,69,40,27,29.56,29.41,17,8,17,0.00
2013-2-28,58,49,37,28,25,21,63,41,27,29.68,29.62,17,7,17,0.00
2013-3-1,57,50,35,28,26,23,64,41,31,29.71,29.62,13,4,13,0.00
2013-3-2,53,48,36,23,20,16,45,34,29,29.83,29.68,14,6,14,0.00
2013-3-3,69,61,37,32,29,20,52,30,24,29.59,29.23,23,9,23,0.00
2013-3-4,84,70,56,46,42,37,62,39,19,29.15,29.00,22,9,22,0.00
2013-3-5,58,54,46,27,22,17,47,30,25,29.74,29.59,22,8,22,0.00
2013-3-6,60,53,36,25,22,19,50,31,22,29.85,29.62,10,3,10,0.00
2013-3-7,70,62,43,32,28,20,40,29,23,29.65,29.50,21,8,21,0.00
2013-3-8,63,60,54,55,50,45,79,71,67,29.59,29.44,10,5,10,0.00
2013-3-9,68,66,61,66,61,56,96,84,76,29.29,29.06,20,8,20,0.00
2013-3-10,58,53,48,45,30,25,69,42,37,29.44,29.23,25,10,25,0.31
2013-3-11,59,50,36,29,24,21,73,37,25,29.53,29.44,12,5,12,0.00
2013-3-12,66,59,40,29,27,24,56,30,23,29.62,29.50,11,7,11,0.00
2013-3-13,70,64,47,33,31,30,56,31,24,29.85,29.71,11,4,11,0.00
2013-3-14,77,68,49,42,38,30,52,35,26,29.77,29.59,19,7,19,0.00
2013-3-15,81,72,55,51,44,38,83,41,23,29.56,29.32,23,7,23,0.00
2013-3-16,81,76,60,54,52,48,82,46,35,29.26,29.12,25,11,25,0.00
2013-3-17,76,72,66,60,53,45,79,52,36,29.21,29.09,15,6,15,0.00
2013-3-18,71,68,61,65,47,37,96,51,34,29.32,29.06,17,6,17,0.00
2013-3-19,70,62,49,39,36,31,65,40,30,29.50,29.38,13,4,13,0.00
2013-3-20,69,62,49,36,30,25,51,31,23,29.71,29.50,13,4,13,0.00
2013-3-21,70,63,52,50,38,27,57,40,32,29.32,29.00,22,8,22,0.00
2013-3-22,66,52,49,60,45,40,89,75,51,29.21,29.03,16,6,16,0.00
2013-3-23,58,54,49,52,48,46,95,79,68,29.26,29.09,12,3,12,0.04
2013-3-24,53,49,40,27,26,23,54,41,36,29.53,29.44,25,10,25,0.04
2013-3-25,56,52,40,24,21,17,44,29,26,29.77,29.68,20,8,20,0.00
2013-3-26,58,52,34,25,22,15,49,32,26,29.91,29.71,11,2,11,0.00
2013-3-27,70,59,40,36,29,21,46,34,25,29.71,29.50,11,7,11,0.00
2013-3-28,72,66,52,54,50,44,75,58,48,29.62,29.50,17,7,17,0.00
2013-3-29,78,73,63,57,54,52,74,51,42,29.59,29.47,10,7,10,0.00
2013-3-30,80,73,59,63,59,56,92,64,47,29.44,29.29,11,5,18,0.98
2013-3-31,74,69,61,63,53,46,90,58,38,29.38,29.21,17,4,17,0.12
2013-4-1,80,76,66,47,45,43,46,33,30,29.47,29.35,10,4,232,0.12
2013-4-2,71,68,66,63,60,58,83,76,67,29.41,29.32,13,5,13,0.00
2013-4-3,52,50,47,48,45,42,93,84,70,29.53,29.38,17,4,17,0.43
2013-4-4,53,48,45,41,39,37,86,70,55,29.62,29.53,14,5,14,0.12
2013-4-5,70,62,43,44,41,38,86,48,33,29.65,29.44,9,3,9,0.00
2013-4-6,76,72,57,54,49,41,65,44,34,29.38,29.26,23,9,23,0.00
2013-4-7,74,72,68,59,58,57,69,61,57,29.32,29.18,18,8,18,0.00
2013-4-8,73,73,73,61,61,61,66,66,66,29.09,29.09,9,5,9,0.00
2013-4-9,85,77,69,64,61,57,85,58,40,29.12,29.06,26,8,26,0.00
2013-4-10,52,45,42,44,40,36,89,81,69,29.35,29.18,19,5,19,0.28
2013-4-11,61,54,41,33,30,27,57,41,34,29.38,29.23,9,3,9,0.28
2013-4-12,78,67,46,44,40,36,76,41,24,29.41,29.29,11,3,11,0.00
2013-4-13,79,74,57,47,45,43,62,36,30,29.41,29.21,15,8,15,0.00
2013-4-14,81,74,58,62,57,51,77,56,43,29.15,28.97,18,8,18,0.00
2013-4-15,85,77,70,66,63,60,89,66,43,29.18,29.06,18,7,18,0.00
2013-4-16,88,81,72,66,62,60,74,54,39,29.32,29.21,17,7,17,0.00
2013-4-17,86,79,74,70,66,62,84,64,46,29.29,29.06,27,10,27,0.00
2013-4-18,76,58,48,71,46,30,89,68,40,29.50,28.97,34,8,34,1.38
2013-4-19,63,58,43,33,28,24,63,33,25,29.68,29.56,20,4,20,0.00
2013-4-20,73,67,48,40,33,28,50,29,24,29.62,29.44,20,6,20,0.00
2013-4-21,74,67,51,47,44,41,69,44,35,29.62,29.47,16,5,16,0.00
2013-4-22,78,70,56,55,50,44,64,51,40,29.50,29.26,15,6,15,0.00
2013-4-23,67,56,47,62,48,37,89,76,67,29.50,29.29,17,6,17,0.00
2013-4-24,61,50,41,34,31,29,73,51,34,29.71,29.62,13,4,13,0.04
2013-4-25,74,65,52,42,38,31,49,37,28,29.74,29.59,11,4,11,0.00
2013-4-26,77,68,60,64,55,45,69,62,54,29.59,29.38,15,6,15,0.00
2013-4-27,75,73,69,58,53,50,68,50,43,29.53,29.41,13,4,13,0.00
2013-4-28,81,73,58,62,58,54,87,62,47,29.44,29.29,11,3,11,0.00
2013-4-29,88,79,64,63,57,51,85,50,31,29.32,29.21,16,6,16,0.00
2013-4-30,82,75,63,64,59,54,90,61,40,29.26,29.18,17,5,17,0.00
2013-5-1,85,76,67,65,61,56,87,62,41,29.32,29.21,13,5,13,0.00
2013-5-2,66,53,46,57,42,35,84,67,57,29.71,29.44,23,8,23,0.00
2013-5-3,68,58,41,32,29,25,65,37,23,29.68,29.44,18,7,18,0.00
2013-5-4,74,71,57,37,33,29,44,24,22,29.38,29.29,20,7,20,0.00
2013-5-5,69,63,51,42,38,34,53,40,35,29.56,29.44,13,5,13,0.00
2013-5-6,78,70,53,51,47,45,81,46,32,29.53,29.41,8,2,8,0.00
2013-5-7,86,76,60,52,50,47,72,43,28,29.47,29.35,9,1,9,0.00
2013-5-8,86,77,64,55,52,49,68,44,29,29.41,29.29,15,6,15,0.00
2013-5-9,72,70,68,67,65,60,92,84,75,29.35,29.26,11,3,11,0.31
2013-5-10,81,74,67,66,63,54,95,71,47,29.41,29.29,8,1,8,0.31
2013-5-11,80,76,65,53,46,40,65,36,26,29.53,29.50,13,6,13,0.00
2013-5-12,79,74,61,42,37,32,42,26,22,29.68,29.56,14,3,14,0.00
2013-5-13,87,79,58,51,45,39,52,31,23,29.65,29.53,12,5,12,0.00
2013-5-14,89,80,63,58,53,48,77,43,28,29.56,29.38,17,5,17,0.00
2013-5-15,79,73,70,70,65,64,94,77,62,29.44,29.21,19,7,19,0.35
2013-5-16,81,72,64,69,66,63,94,83,65,29.23,29.18,13,4,13,2.52
2013-5-17,91,85,73,73,70,67,95,64,47,29.26,29.21,17,5,17,0.00
2013-5-18,91,87,75,70,68,66,80,55,44,29.32,29.18,17,7,17,0.00
2013-5-19,90,84,72,67,65,62,80,54,42,29.26,29.09,25,8,25,0.00
2013-5-20,90,82,75,69,67,65,78,63,44,29.23,29.06,22,7,22,0.00
2013-5-21,86,74,66,70,66,61,89,76,58,29.23,29.12,17,5,17,1.42
2013-5-22,84,75,59,63,57,50,89,56,31,29.35,29.26,8,1,8,1.42
2013-5-23,87,80,71,73,69,67,95,70,55,29.47,29.32,11,3,11,0.00
2013-5-24,88,81,74,72,70,60,87,69,47,29.56,29.44,13,4,13,0.00
2013-5-25,86,77,70,72,68,61,92,76,52,29.56,29.44,22,4,22,0.20
2013-5-26,87,82,73,74,68,64,95,65,47,29.50,29.35,15,6,15,0.20
2013-5-29,75,75,72,72,70,66,90,87,81,29.18,29.15,15,6,15,0.35
2013-5-31,90,87,83,70,68,66,64,54,46,29.18,29.09,18,6,18,0.00
2013-6-1,87,82,78,75,70,67,83,68,57,29.32,29.23,15,5,15,0.12
2013-6-2,86,81,69,58,51,43,69,37,25,29.50,29.35,10,5,10,0.00
2013-6-3,88,80,65,60,56,50,75,47,30,29.41,29.26,10,2,10,0.00
2013-6-4,80,74,70,65,63,61,74,69,60,29.41,29.26,12,4,12,0.00
2013-6-5,91,84,74,70,66,62,80,55,41,29.35,29.18,17,3,17,0.00
2013-6-6,79,74,70,71,66,61,91,76,59,29.32,29.23,15,3,15,0.75
2013-6-7,84,75,65,61,55,48,82,52,30,29.41,29.29,9,3,9,0.00
2013-6-8,89,86,74,60,56,52,55,37,31,29.35,29.21,13,5,13,0.00
2013-6-9,87,79,70,73,67,61,92,69,42,29.35,29.26,14,3,14,0.39
2013-6-10,97,89,72,71,63,57,86,46,27,29.38,29.32,11,5,11,0.39
2013-6-11,94,88,76,73,68,63,86,53,39,29.44,29.32,16,6,17,0.00
2013-6-12,94,88,76,73,68,62,86,55,38,29.47,29.35,13,5,13,0.00
2013-6-13,98,91,76,71,68,62,78,49,36,29.47,29.32,10,3,10,0.00
2013-6-14,98,92,77,71,67,62,71,45,34,29.41,29.29,8,1,8,0.00
2013-6-15,92,87,77,75,71,65,78,59,49,29.41,29.29,13,3,13,0.12
2013-6-16,97,91,78,73,67,61,82,47,36,29.44,29.29,10,4,10,0.00
2013-6-17,91,82,72,77,71,63,86,70,52,29.44,29.26,22,3,22,0.39
2013-6-18,84,78,74,68,68,66,80,71,60,29.41,29.32,11,4,11,0.39
2013-6-19,92,86,73,75,71,62,93,63,44,29.41,29.35,11,3,11,0.00
2013-6-20,95,89,77,72,66,59,83,51,32,29.47,29.35,17,5,17,0.00
2013-6-21,96,92,82,72,64,58,70,41,30,29.50,29.38,17,6,17,0.00
2013-6-22,96,92,77,72,65,60,77,43,33,29.47,29.29,15,6,15,0.00
2013-6-23,96,90,77,72,66,57,79,46,30,29.41,29.29,15,7,15,0.00
2013-6-24,96,90,77,71,65,59,78,46,32,29.44,29.32,16,7,16,0.00
2013-6-25,97,92,78,71,64,58,76,43,29,29.41,29.23,18,7,18,0.00
2013-6-26,97,90,78,70,67,62,78,50,35,29.38,29.26,13,6,13,0.00
2013-6-27,80,79,79,70,69,68,74,71,69,29.41,29.38,10,5,10,0.00
2013-6-29,97,94,89,56,53,48,29,25,20,29.26,29.21,15,5,15,0.00
2013-6-30,93,88,82,60,54,52,40,32,27,29.35,29.32,15,5,15,0.00
2013-7-1,88,83,71,58,54,51,59,38,30,29.44,29.38,11,4,11,0.00
2013-7-2,89,83,70,55,50,43,54,33,24,29.50,29.41,10,3,10,0.00
2013-7-3,92,84,67,62,51,43,76,35,21,29.47,29.41,9,1,9,0.00
2013-7-4,96,89,74,64,55,47,62,34,22,29.44,29.32,10,3,10,0.00
2013-7-5,97,92,76,63,58,54,62,33,26,29.41,29.26,10,3,10,0.00
2013-7-6,97,92,79,66,58,51,60,33,24,29.38,29.26,15,4,15,0.00
2013-7-7,98,94,77,70,63,58,69,38,28,29.41,29.32,15,4,15,0.00
2013-7-8,97,89,78,71,67,62,77,51,35,29.50,29.41,13,5,13,0.00
2013-7-9,98,89,76,72,65,55,86,49,26,29.53,29.38,13,5,13,0.00
2013-7-10,101,93,81,71,66,56,68,44,26,29.47,29.32,10,3,10,0.00
2013-7-11,101,91,81,74,67,60,66,48,27,29.38,29.29,26,3,29,0.00
2013-7-12,99,92,76,71,66,60,80,46,28,29.38,29.29,11,3,11,0.00
2013-7-13,99,93,80,65,61,55,61,35,27,29.41,29.29,13,3,13,0.00
2013-7-14,75,74,72,70,68,64,87,83,69,29.44,29.32,11,2,11,0.16
2013-7-15,77,74,70,72,69,67,91,86,75,29.47,29.38,8,2,8,0.35
2013-7-16,84,78,74,75,72,68,90,84,62,29.65,29.50,14,2,14,1.06
2013-7-17,91,81,74,74,71,64,94,74,45,29.65,29.56,10,2,10,0.12
2013-7-18,95,87,74,72,67,62,84,54,38,29.59,29.41,8,1,8,0.12
2013-7-19,98,86,77,76,71,64,82,64,36,29.47,29.35,14,2,14,0.08
2013-7-20,96,90,75,74,69,62,87,52,34,29.38,29.26,12,2,12,0.00
2013-7-21,97,90,75,74,68,62,87,51,37,29.35,29.26,13,4,13,0.00
2013-7-22,97,89,78,74,69,62,86,55,34,29.38,29.26,13,5,13,0.00
2013-7-23,98,90,80,75,70,56,80,53,31,29.38,29.23,13,6,13,0.00
2013-7-24,94,85,77,71,68,64,72,58,37,29.47,29.32,15,3,15,0.00
2013-7-25,95,88,76,73,69,65,77,55,38,29.47,29.38,8,3,8,0.00
2013-7-26,95,85,80,76,70,66,85,62,40,29.44,29.26,11,4,11,0.08
2013-7-27,88,85,77,67,62,56,68,47,34,29.44,29.32,9,4,9,0.00
2013-7-28,93,88,72,68,64,60,82,48,35,29.41,29.29,11,3,11,0.00
2013-7-29,94,88,78,74,70,67,82,57,42,29.41,29.32,17,7,17,0.00
2013-7-30,98,90,79,71,67,60,76,49,32,29.50,29.35,13,4,13,0.00
2013-7-31,99,91,79,71,66,60,71,46,30,29.47,29.32,11,3,11,0.00
2013-8-1,100,91,81,72,67,59,73,48,27,29.41,29.29,6,1,6,0.00
2013-8-2,102,94,80,70,63,58,69,38,27,29.35,29.29,11,4,11,0.00
2013-8-3,100,96,82,70,62,57,63,35,27,29.41,29.35,10,4,10,0.00
2013-8-4,100,95,81,71,65,58,69,40,26,29.50,29.32,10,4,10,0.00
2013-8-5,101,93,81,69,62,56,65,38,26,29.41,29.26,11,5,13,0.00
2013-8-6,102,94,79,69,64,57,69,40,25,29.32,29.21,15,6,15,0.00
2013-8-7,102,94,80,71,64,56,71,40,26,29.32,29.18,15,5,15,0.00
2013-8-8,86,81,81,72,70,69,72,70,63,29.26,29.23,14,7,14,0.00
2013-8-9,101,94,80,70,63,58,65,40,25,29.35,29.26,11,3,11,0.00
2013-8-10,97,93,82,74,67,59,74,43,30,29.47,29.35,11,3,11,0.00
2013-8-12,99,96,92,67,61,58,36,32,29,29.41,29.32,11,4,11,0.00
2013-8-13,100,86,76,75,68,60,84,57,28,29.41,29.29,24,3,24,1.18
2013-8-14,90,84,77,75,72,67,92,70,51,29.44,29.32,14,2,14,0.24
2013-8-15,88,80,72,63,59,56,67,50,39,29.50,29.38,9,2,9,0.00
2013-8-16,87,82,73,68,60,56,84,49,37,29.44,29.38,11,2,11,0.04
2013-8-17,88,82,68,60,55,51,75,41,29,29.50,29.38,10,3,10,0.00
2013-8-18,90,82,70,66,60,53,74,50,29,29.53,29.41,11,3,11,0.00
2013-8-19,76,74,73,64,63,62,70,68,65,29.47,29.41,8,3,8,0.00
2013-8-20,96,87,74,64,58,52,63,40,26,29.47,29.38,9,2,9,0.00
2013-8-21,95,87,75,67,63,59,68,46,34,29.50,29.38,9,3,9,0.00
2013-8-22,98,92,77,71,65,59,70,43,30,29.50,29.35,10,2,10,0.00
2013-8-23,99,91,79,72,64,57,66,44,28,29.44,29.32,11,3,11,0.00
2013-8-24,99,94,82,70,62,57,63,37,26,29.47,29.38,11,4,11,0.00
2013-8-25,97,92,79,69,62,58,67,39,29,29.56,29.47,13,4,13,0.00
2013-8-26,96,90,77,69,61,54,74,42,27,29.59,29.47,17,5,17,0.00
2013-8-27,94,87,76,70,65,59,81,51,33,29.53,29.41,12,4,12,0.00
2013-8-28,97,90,74,70,62,57,76,43,28,29.53,29.41,8,2,8,0.00
2013-8-29,100,93,78,67,60,55,63,36,25,29.50,29.35,9,1,9,0.00
2013-8-30,101,93,79,67,60,56,62,36,25,29.41,29.29,7,2,7,0.00
2013-8-31,102,97,83,71,61,55,62,32,23,29.32,29.21,10,2,10,0.00
2013-9-1,102,95,80,68,62,56,62,35,25,29.29,29.18,8,2,8,0.00
2013-9-2,90,86,80,74,70,63,82,59,43,29.41,29.26,6,1,6,0.31
2013-9-3,96,88,76,64,61,55,63,43,28,29.41,29.29,9,2,9,0.00
2013-9-4,98,91,77,71,64,56,75,44,26,29.47,29.35,9,3,9,0.00
2013-9-5,96,90,78,70,65,54,70,46,27,29.53,29.41,8,2,8,0.00
2013-9-6,98,90,77,70,60,54,63,40,26,29.47,29.35,8,1,8,0.00
2013-9-7,97,92,79,70,61,54,69,38,27,29.47,29.32,11,3,11,0.00
2013-9-8,95,92,79,70,62,54,71,38,30,29.41,29.29,9,2,9,0.00
2013-9-9,94,86,75,67,62,56,76,47,30,29.44,29.32,11,3,11,0.00
2013-9-10,92,86,76,72,63,53,77,50,28,29.53,29.41,13,5,13,0.00
2013-9-11,95,87,74,73,64,61,75,49,34,29.53,29.41,15,2,15,0.00
2013-9-12,94,88,76,69,64,57,78,47,30,29.47,29.32,7,2,7,0.00
2013-9-14,92,89,76,59,57,53,47,34,30,29.38,29.29,13,4,13,0.00
2013-9-15,93,89,76,66,62,57,55,42,34,29.44,29.35,9,3,9,0.00
2013-9-16,95,88,76,71,62,54,72,45,28,29.50,29.38,9,2,9,0.00
2013-9-17,94,86,78,68,64,58,67,49,33,29.50,29.35,8,2,8,0.00
2013-9-18,94,87,78,69,62,54,66,46,27,29.44,29.29,15,4,15,0.00
2013-9-19,88,82,76,74,70,65,89,68,48,29.41,29.29,16,2,16,0.39
2013-9-20,76,75,73,74,71,66,95,89,76,29.35,29.26,13,3,13,1.26
2013-9-22,82,76,61,55,49,44,73,41,30,29.35,29.21,11,3,11,0.00
2013-9-23,84,76,61,52,50,48,71,43,30,29.29,29.18,13,3,13,0.00
2013-9-24,91,82,68,66,56,41,80,47,20,29.32,29.26,9,3,9,0.00
2013-9-25,89,80,64,57,51,44,69,38,21,29.32,29.21,5,1,5,0.00
2013-9-26,93,83,68,59,53,48,55,37,25,29.32,29.23,15,4,15,0.00
2013-9-27,88,82,70,70,66,59,71,59,51,29.35,29.26,15,6,15,0.00
2013-9-28,88,79,73,74,72,69,89,79,59,29.41,29.29,15,5,15,0.91
2013-9-29,81,75,66,57,52,44,72,47,30,29.47,29.32,8,3,8,0.91
2013-9-30,85,77,63,63,54,46,76,48,27,29.32,29.23,10,2,10,0.04
2013-10-1,88,81,72,71,65,57,94,62,36,29.38,29.26,13,4,13,0.00
2013-10-2,88,82,75,71,68,65,87,65,50,29.41,29.29,13,6,13,0.00
2013-10-3,89,80,76,72,71,66,87,74,48,29.35,29.29,14,6,14,0.00
2013-10-4,88,83,75,71,66,62,87,59,42,29.35,29.26,14,6,14,0.00
2013-10-5,76,64,55,70,52,39,85,68,46,29.50,29.35,13,6,13,0.20
2013-10-6,72,66,52,48,37,30,86,37,23,29.53,29.44,16,5,16,0.20
2013-10-8,78,64,55,46,44,41,69,51,27,29.53,29.38,9,1,9,0.00
2013-10-9,82,72,59,55,50,46,73,51,31,29.50,29.38,13,4,13,0.00
2013-10-10,82,74,62,59,56,51,80,54,35,29.47,29.32,15,5,15,0.00
2013-10-11,86,81,70,68,66,65,87,62,52,29.38,29.26,16,6,16,0.00
2013-10-12,86,82,74,74,70,64,87,68,55,29.50,29.32,9,3,9,0.00
2013-10-13,76,74,72,70,67,65,90,80,72,29.62,29.53,11,2,11,0.00
2013-10-14,74,72,70,72,71,68,96,95,94,29.50,29.35,13,4,13,0.59
2013-10-15,79,71,60,72,67,56,93,87,71,29.41,29.35,11,2,11,0.31
2013-10-17,70,68,63,43,41,39,48,38,33,29.44,29.41,0,0,0,0.67
2013-10-18,70,64,56,54,50,46,82,59,44,29.41,29.32,0,0,0,0.00
2013-10-19,64,58,45,40,35,31,74,44,33,29.62,29.50,0,0,0,0.00
2013-10-20,70,63,46,43,40,38,80,45,32,29.47,29.29,0,0,0,0.00
2013-10-21,73,65,57,60,54,48,82,68,52,29.41,29.35,0,0,0,0.00
2013-10-22,73,62,47,44,40,37,77,47,29,29.59,29.44,0,0,0,0.00
2013-10-23,78,64,52,48,44,40,77,53,26,29.53,29.44,0,0,0,0.00
2013-10-24,77,68,56,48,46,42,68,46,34,29.65,29.50,0,0,0,0.00
2013-10-25,68,60,53,45,40,36,72,49,36,29.83,29.68,0,0,0,0.00
2013-10-27,69,68,67,57,56,55,67,64,63,29.53,29.50,0,0,0,0.87
2013-10-31,73,73,73,39,39,38,29,29,28,29.26,29.18,0,0,0,0.16
2013-11-1,74,64,51,48,45,43,80,52,34,29.35,29.23,0,0,0,0.00
2013-11-2,67,60,52,36,34,29,52,38,25,29.71,29.59,0,0,0,0.00
2013-11-3,66,61,47,39,37,35,66,42,33,29.62,29.44,0,0,0,0.00
2013-11-4,62,59,54,60,55,42,95,86,59,29.53,29.41,0,0,0,0.16
2013-11-5,68,66,62,67,64,62,98,96,94,29.47,29.35,0,0,0,0.04
2013-11-6,66,55,52,61,45,38,89,69,49,29.71,29.41,0,0,0,0.04
2013-11-7,62,53,41,54,39,32,90,60,34,29.91,29.80,0,0,0,0.00
2013-11-8,67,61,48,46,38,35,87,44,33,29.77,29.59,0,0,0,0.00
2013-11-9,68,63,56,47,45,41,62,51,45,29.59,29.53,0,0,0,0.00
2013-11-10,63,59,54,47,45,41,71,62,44,29.77,29.68,0,0,0,0.00
2013-11-11,71,62,49,50,47,44,85,60,42,29.71,29.59,0,0,0,0.00
2013-11-12,54,50,44,46,27,16,72,43,28,30.03,29.80,0,0,0,0.00
2013-11-13,51,44,32,24,21,17,60,41,31,30.09,29.85,0,0,0,0.00
2013-11-14,59,50,35,31,28,24,66,43,28,29.74,29.47,0,0,0,0.00
2013-11-15,69,63,55,56,52,47,79,68,53,29.41,29.26,0,0,0,0.00
2013-11-16,75,71,66,67,63,60,88,76,64,29.29,29.12,0,0,0,0.00
2013-11-17,84,79,69,69,52,39,86,42,25,29.29,29.15,0,0,0,0.00
2013-11-18,69,66,59,31,29,27,29,25,23,29.59,29.53,0,0,0,0.00
2013-11-19,68,63,56,33,30,28,40,29,24,29.59,29.44,0,0,0,0.00
2013-11-20,64,60,48,45,38,29,54,45,37,29.44,29.29,0,0,0,0.00
2013-11-21,72,68,62,68,66,58,96,91,85,29.44,29.38,0,0,0,0.00
2013-11-22,39,38,36,36,34,32,91,87,78,29.83,29.74,0,0,0,0.12
2013-11-23,43,40,38,38,32,22,92,73,51,29.94,29.85,0,0,0,0.04
2013-11-24,36,36,34,23,20,16,60,53,44,29.97,29.77,0,0,0,0.00
2013-11-25,39,38,35,36,34,32,90,86,80,29.68,29.53,0,0,0,0.12
2013-11-26,49,45,37,32,28,23,81,54,38,29.71,29.53,0,0,0,0.12
2013-11-27,45,38,31,20,16,11,59,42,32,29.85,29.74,0,0,0,0.00
2013-11-28,52,44,30,26,24,19,70,46,34,29.85,29.77,0,0,0,0.00
2013-11-29,57,52,40,36,32,28,78,47,36,29.91,29.74,0,0,0,0.00
2013-11-30,65,57,40,50,42,31,77,60,45,29.77,29.56,0,0,0,0.00
2013-12-1,70,66,56,57,54,52,95,67,52,29.53,29.35,0,0,0,0.00
2013-12-2,68,58,47,52,47,42,89,69,43,29.23,29.12,0,0,0,0.00
2013-12-3,70,58,46,51,41,34,94,59,27,29.03,28.94,0,0,0,0.00
2013-12-4,74,66,54,56,50,39,81,58,35,29.18,29.03,0,0,0,0.00
2013-12-5,38,35,32,28,21,17,83,58,44,29.56,29.44,0,0,0,0.00
2013-12-6,31,28,28,27,22,22,86,79,79,29.74,29.68,0,0,0,0.55
2013-12-7,27,26,22,24,20,13,88,79,69,29.94,29.71,0,0,0,0.00
2013-12-8,35,34,30,31,30,27,88,85,82,29.59,29.44,0,0,0,0.04
2013-12-9,34,33,33,30,28,27,85,82,78,29.65,29.65,0,0,0,0.00
2013-12-10,36,29,22,23,18,11,71,63,53,29.91,29.74,0,0,0,0.20
2013-12-11,44,38,27,28,25,21,80,61,49,29.94,29.74,0,0,0,0.20
2013-12-12,48,39,30,28,25,22,73,57,41,30.00,29.83,0,0,0,0.00
2013-12-13,46,44,42,45,39,30,96,85,61,29.56,29.23,0,0,0,0.04
2013-12-14,46,42,37,42,33,23,90,69,54,29.71,29.41,0,0,0,0.00
2013-12-15,57,49,32,31,28,25,75,46,33,29.77,29.62,0,0,0,0.00
2013-12-16,64,53,37,34,32,29,76,47,31,29.65,29.56,0,0,0,0.00
2013-12-17,67,54,38,36,33,29,74,48,29,29.71,29.62,0,0,0,0.00
2013-12-18,68,58,41,41,38,34,81,51,34,29.65,29.44,0,0,0,0.00
2013-12-19,71,63,53,57,54,50,89,73,57,29.35,29.18,0,0,0,0.00
2013-12-20,70,62,44,62,55,38,85,78,68,29.26,29.21,0,0,0,0.00
2013-12-21,55,51,43,54,51,42,98,98,96,29.12,28.94,0,0,0,0.43
2013-12-22,42,38,34,25,24,22,69,57,49,29.77,29.47,0,0,0,0.43
2013-12-23,44,38,28,25,23,21,77,55,41,29.94,29.85,0,0,0,0.00
2013-12-24,51,44,29,31,28,22,78,53,43,29.94,29.68,0,0,0,0.00
2013-12-25,59,49,38,38,33,30,73,54,44,29.83,29.68,0,0,0,0.00
2013-12-26,51,46,34,32,31,28,81,56,47,29.85,29.74,0,0,0,0.00
2013-12-27,57,51,37,36,33,30,84,51,37,29.85,29.74,0,0,0,0.00
2013-12-28,60,54,38,41,35,32,85,50,37,29.65,29.38,0,0,0,0.00
2013-12-29,52,43,39,40,30,24,71,59,54,29.68,29.44,0,0,0,0.00
2013-12-30,43,39,32,19,17,13,47,40,38,29.77,29.68,0,0,0,0.00
2013-12-31,52,47,34,24,23,18,64,38,31,29.83,29.62,0,0,0,0.00
2014-1-1,65,58,41,47,38,28,65,47,36,29.47,29.29,0,0,0,0.00
2014-1-2,42,37,27,17,15,11,52,40,36,29.88,29.83,0,0,0,0.00